Upper Falls, MD (21156)

11:18 AM EDT on August 22, 2014 (GMT -0400)
Rumsey Island Joppa, MD | Change Station
CLOSE
Current Station
Personal Weather Station
Location: Joppa, MD
Elevation: 16 ft
Nearby Weather Stations

Elev 16 ft 39.41 °N, 76.36 °W | Updated 5 minutes ago

Overcast
Overcast
77.4 °F
Feels Like 79 °F
N
0.0
Wind Variable Wind from NE

Today
High -- | Low -- °F
--% Chance of Precip.
Yesterday
High -- | Low -- °F
Precip. -- in
6:24 AM 7:51 PM
Waning Crescent, 8% visible
Pressure 30.02 in
Visibility 7.0 miles
Clouds Overcast 1400 ft
Heat Index 79 °F
Dew Point 72 °F
Humidity 84%
Rainfall 0.00 in
Snow Depth Not available.
UV 2 out of 12
Pollen 8.70 out of 12
Air Quality Not available.
Flu Activity Not available.
METAR KMTN 221445Z 36009KT 7SM OVC014 24/23 A3002

More Conditions Fewer Conditions

Pressure 30.02 in
Visibility 7.0 miles
Clouds Overcast 1400 ft
Heat Index 79 °F
Dew Point 72 °F
Humidity 84%
Rainfall 0.00 in
Snow Depth Not available.
UV 2 out of 12
Pollen 8.70 out of 12
Air Quality Not available.
Flu Activity Not available.
METAR KMTN 221445Z 36009KT 7SM OVC014 24/23 A3002

More Conditions Fewer Conditions

10-Day Weather Forecast

Almanac

Astronomy

Aug. 22, 2014 Rise Set
Actual Time 6:24 AM EDT 7:51 PM EDT
Civil Twilight 5:56 AM EDT 8:19 PM EDT
Nautical Twilight 5:22 AM EDT 8:53 PM EDT
Astronomical Twilight 4:46 AM EDT 9:29 PM EDT
Moon 3:45 AM EDT 5:58 PM EDT
Length of Visible Light 14h 23m
Length of Day
13h 26m
Tomorrow will be 2m 22s shorter.
Waning Crescent, 8% of the Moon is Illuminated
Today
Waning Crescent
Aug 25
New
Sep 2
First Quarter
Sep 8
Full
Sep 15
Last Quarter

Today's Extremes

State Highs State Lows

Community

WunderPhotos

Upload Photos

1,746,187 photos uploaded!

WunderBlogs® & News

Nearby

Snow Depth

Station Depth Elevation
No new snow has been reported.

Earthquake Activity

City Distance Mag. Time & Date
No recent earthquake activity has been reported nearby.
Minimum magnitude displayed is 2.5.

Coastal Water Temperatures

Place Temperature
Tolchester Beach, MD 80.1 °F
Baltimore, MD 81.0 °F

Nearby Weather Stations